Time;durP1;ratioP1;P1;durP2;ratioP2;P2;SDS_P1;SDS_P2;PMS_P1;PMS_P2;Temp;Humidity;BMP_temperature;BMP_pressure;BME280_temperature;BME280_humidity;BME280_pressure;Samples;Min_cycle;Max_cycle;Signal;HPM_P1;HPM_P2
2024/02/26 00:01:55;;;;;;;;;;;8.20;99.90;;;;;;5086292;28;20025;-84
2024/02/26 00:04:21;;;;;;;;;;;8.20;99.90;;;;;;5085638;28;19989;-84
2024/02/26 00:06:50;;;;;;;;;;;8.20;99.90;;;;;;5071986;28;19997;-83
2024/02/26 00:09:15;;;;;;;;;;;8.20;99.90;;;;;;5073159;28;20070;-83
2024/02/26 00:11:41;;;;;;;;;;;8.20;99.90;;;;;;5079543;28;19989;-85
2024/02/26 00:14:06;;;;;;;;;;;8.20;99.90;;;;;;5079795;28;19992;-85
2024/02/26 00:16:32;;;;;;;;;;;8.20;99.90;;;;;;5073493;28;19995;-84
2024/02/26 00:18:58;;;;;;;;;;;8.20;99.90;;;;;;5082123;28;20843;-85
2024/02/26 00:21:23;;;;;;;;;;;8.10;99.90;;;;;;5073229;28;20051;-86
2024/02/26 00:23:50;;;;;;;;;;;8.10;99.90;;;;;;5078566;28;19988;-83
2024/02/26 00:26:15;;;;;;;;;;;8.10;99.90;;;;;;5083791;28;19989;-81
2024/02/26 00:28:41;;;;;;;;;;;8.10;99.90;;;;;;5081163;28;20065;-84
2024/02/26 00:31:06;;;;;;;;;;;8.10;99.90;;;;;;5076845;28;19993;-81
2024/02/26 00:33:32;;;;;;;;;;;8.00;99.90;;;;;;5091682;28;19993;-82
2024/02/26 00:35:57;;;;;;;;;;;8.00;99.90;;;;;;5088879;28;19997;-82
2024/02/26 00:38:23;;;;;;;;;;;8.00;99.90;;;;;;5073160;28;20051;-83
2024/02/26 00:40:48;;;;;;;;;;;8.00;99.90;;;;;;5075402;28;20046;-82
2024/02/26 00:43:14;;;;;;;;;;;7.90;99.90;;;;;;5083408;28;19996;-82
2024/02/26 00:45:40;;;;;;;;;;;7.90;99.90;;;;;;5074998;28;20020;-81
2024/02/26 00:48:05;;;;;;;;;;;7.90;99.90;;;;;;5072630;28;20574;-81
2024/02/26 00:50:31;;;;;;;;;;;7.80;99.90;;;;;;5075369;28;20401;-81
2024/02/26 00:52:57;;;;;;;;;;;7.80;99.90;;;;;;5081009;28;19989;-81
2024/02/26 00:55:22;;;;;;;;;;;7.80;99.90;;;;;;5080871;28;21011;-81
2024/02/26 00:57:48;;;;;;;;;;;7.80;99.90;;;;;;5076497;28;20140;-81
2024/02/26 01:00:14;;;;;;;;;;;7.80;99.90;;;;;;5077821;28;20630;-81
2024/02/26 01:02:41;;;;;;;;;;;7.80;99.90;;;;;;5085175;28;20472;-81
2024/02/26 01:05:09;;;;;;;;;;;7.80;99.90;;;;;;5073038;28;20000;-81
2024/02/26 01:07:35;;;;;;;;;;;7.70;99.90;;;;;;5077547;28;20088;-81
2024/02/26 01:10:01;;;;;;;;;;;7.70;99.90;;;;;;5082917;28;20012;-81
2024/02/26 01:12:27;;;;;;;;;;;7.60;99.90;;;;;;5087642;28;19992;-81
2024/02/26 01:14:53;;;;;;;;;;;7.60;99.90;;;;;;5083586;28;19992;-81
2024/02/26 01:17:18;;;;;;;;;;;7.60;99.90;;;;;;5076671;28;19992;-82
2024/02/26 01:19:44;;;;;;;;;;;7.60;99.90;;;;;;5081988;28;20044;-81
2024/02/26 01:22:09;;;;;;;;;;;7.70;99.90;;;;;;5080153;28;20032;-82
2024/02/26 01:24:35;;;;;;;;;;;7.80;99.90;;;;;;5085468;28;20115;-82
2024/02/26 01:27:00;;;;;;;;;;;7.90;99.90;;;;;;5080734;28;19993;-82
2024/02/26 01:29:26;;;;;;;;;;;7.90;99.90;;;;;;5081240;28;20010;-80
2024/02/26 01:31:52;;;;;;;;;;;7.90;99.90;;;;;;5083907;28;20025;-81
2024/02/26 01:34:18;;;;;;;;;;;7.90;99.90;;;;;;5077414;28;19993;-82
2024/02/26 01:36:44;;;;;;;;;;;7.90;99.90;;;;;;5083897;28;19985;-82
2024/02/26 01:39:12;;;;;;;;;;;7.90;99.90;;;;;;5071366;28;20114;-82
2024/02/26 01:41:38;;;;;;;;;;;7.90;99.90;;;;;;5082399;28;19989;-82
2024/02/26 01:44:04;;;;;;;;;;;7.90;99.90;;;;;;5084388;28;20000;-82
2024/02/26 01:46:30;;;;;;;;;;;7.90;99.90;;;;;;5071860;28;20531;-82
2024/02/26 01:48:55;;;;;;;;;;;7.90;99.90;;;;;;5076242;28;20012;-82
2024/02/26 01:51:21;;;;;;;;;;;7.90;99.90;;;;;;5071806;28;19989;-81
2024/02/26 01:53:47;;;;;;;;;;;7.90;99.90;;;;;;5078770;28;19997;-82
2024/02/26 01:56:13;;;;;;;;;;;7.90;99.90;;;;;;5081710;28;20007;-81
2024/02/26 01:58:38;;;;;;;;;;;7.90;99.90;;;;;;5075189;28;20044;-82
2024/02/26 02:01:04;;;;;;;;;;;8.00;99.90;;;;;;5081998;28;19996;-81
2024/02/26 02:03:30;;;;;;;;;;;7.90;99.90;;;;;;5077958;28;19989;-81
2024/02/26 02:05:56;;;;;;;;;;;8.00;99.90;;;;;;5073612;28;19993;-81
2024/02/26 02:08:21;;;;;;;;;;;7.90;99.90;;;;;;5069285;28;20550;-81
2024/02/26 02:10:48;;;;;;;;;;;7.90;99.90;;;;;;5071099;28;19996;-81
2024/02/26 02:13:14;;;;;;;;;;;7.90;99.90;;;;;;5082285;28;19993;-82
2024/02/26 02:15:40;;;;;;;;;;;8.00;99.90;;;;;;5081987;28;19996;-83
2024/02/26 02:18:06;;;;;;;;;;;8.00;99.90;;;;;;5080936;28;19996;-83
2024/02/26 02:20:33;;;;;;;;;;;7.90;99.90;;;;;;5083497;28;20456;-83
2024/02/26 02:22:58;;;;;;;;;;;7.90;99.90;;;;;;5081185;28;20028;-83
2024/02/26 02:25:24;;;;;;;;;;;7.90;99.90;;;;;;5075215;28;20027;-84
2024/02/26 02:27:50;;;;;;;;;;;7.90;99.90;;;;;;5078350;28;20018;-83
2024/02/26 02:30:16;;;;;;;;;;;8.00;99.90;;;;;;5079649;28;20013;-83
2024/02/26 02:32:42;;;;;;;;;;;8.00;99.90;;;;;;5081017;28;19999;-83
2024/02/26 02:35:07;;;;;;;;;;;7.90;99.90;;;;;;5088735;28;19993;-83
2024/02/26 02:37:33;;;;;;;;;;;8.00;99.90;;;;;;5075179;28;20642;-83
2024/02/26 02:39:59;;;;;;;;;;;7.90;99.90;;;;;;5087104;28;20619;-82
2024/02/26 02:42:25;;;;;;;;;;;7.90;99.90;;;;;;5084638;28;20418;-82
2024/02/26 02:44:51;;;;;;;;;;;7.90;99.90;;;;;;5084694;28;20075;-83
2024/02/26 02:47:16;;;;;;;;;;;7.90;99.90;;;;;;5078422;28;20060;-82
2024/02/26 02:49:42;;;;;;;;;;;7.90;99.90;;;;;;5083467;28;20012;-82
2024/02/26 02:52:07;;;;;;;;;;;8.00;99.90;;;;;;5083003;28;19992;-83
2024/02/26 02:54:33;;;;;;;;;;;7.90;99.90;;;;;;5078698;28;20070;-82
2024/02/26 02:56:59;;;;;;;;;;;8.00;99.90;;;;;;5075463;28;19993;-82
2024/02/26 02:59:25;;;;;;;;;;;7.90;99.90;;;;;;5089665;28;20001;-81
2024/02/26 03:01:50;;;;;;;;;;;7.90;99.90;;;;;;5094448;28;20816;-81
2024/02/26 03:04:16;;;;;;;;;;;7.90;99.90;;;;;;5086873;28;20010;-82
2024/02/26 03:06:41;;;;;;;;;;;7.90;99.90;;;;;;5082009;28;20682;-81
2024/02/26 03:09:07;;;;;;;;;;;8.00;99.90;;;;;;5073482;28;20021;-81
2024/02/26 03:11:32;;;;;;;;;;;8.00;99.90;;;;;;5074312;28;20047;-81
2024/02/26 03:13:58;;;;;;;;;;;8.00;99.90;;;;;;5076872;28;20039;-80
2024/02/26 03:16:23;;;;;;;;;;;7.90;99.90;;;;;;5082000;28;19989;-81
2024/02/26 03:18:49;;;;;;;;;;;7.90;99.90;;;;;;5084450;28;20000;-82
2024/02/26 03:21:14;;;;;;;;;;;7.90;99.90;;;;;;5080458;28;20042;-82
2024/02/26 03:23:40;;;;;;;;;;;7.90;99.90;;;;;;5085876;28;19993;-82
2024/02/26 03:26:06;;;;;;;;;;;7.90;99.90;;;;;;5080271;28;19992;-83
2024/02/26 03:28:33;;;;;;;;;;;7.90;99.90;;;;;;5082986;28;20107;-84
2024/02/26 03:31:02;;;;;;;;;;;7.90;99.90;;;;;;5088859;28;19989;-83
2024/02/26 03:33:27;;;;;;;;;;;7.90;99.90;;;;;;5078200;28;20067;-83
2024/02/26 03:35:53;;;;;;;;;;;8.00;99.90;;;;;;5080309;28;20036;-83
2024/02/26 03:38:18;;;;;;;;;;;7.90;99.90;;;;;;5085000;28;20585;-83
2024/02/26 03:40:44;;;;;;;;;;;7.90;99.90;;;;;;5074587;28;20472;-83
2024/02/26 03:43:09;;;;;;;;;;;7.90;99.90;;;;;;5087040;28;20041;-83
2024/02/26 03:45:35;;;;;;;;;;;7.90;99.90;;;;;;5075273;28;20003;-83
2024/02/26 03:48:00;;;;;;;;;;;7.90;99.90;;;;;;5072566;28;20001;-83
2024/02/26 03:50:26;;;;;;;;;;;7.90;99.90;;;;;;5076229;28;20009;-82
2024/02/26 03:52:51;;;;;;;;;;;7.90;99.90;;;;;;5083541;28;19990;-83
2024/02/26 03:55:20;;;;;;;;;;;7.90;99.90;;;;;;5072247;28;20038;-82
2024/02/26 03:57:46;;;;;;;;;;;7.90;99.90;;;;;;5082875;28;20016;-83
2024/02/26 04:00:12;;;;;;;;;;;7.90;99.90;;;;;;5078576;28;19993;-83
2024/02/26 04:02:38;;;;;;;;;;;7.80;99.90;;;;;;5079179;28;19994;-82
2024/02/26 04:05:04;;;;;;;;;;;7.90;99.90;;;;;;5078411;28;19995;-83
2024/02/26 04:07:29;;;;;;;;;;;7.90;99.90;;;;;;5075449;28;20040;-83
2024/02/26 04:09:55;;;;;;;;;;;7.90;99.90;;;;;;5083191;28;20012;-82
2024/02/26 04:12:20;;;;;;;;;;;7.90;99.90;;;;;;5085114;28;20058;-82
2024/02/26 04:14:46;;;;;;;;;;;7.90;99.90;;;;;;5084169;28;20750;-82
2024/02/26 04:17:11;;;;;;;;;;;7.80;99.90;;;;;;5072150;28;20034;-82
2024/02/26 04:19:37;;;;;;;;;;;7.90;99.90;;;;;;5076609;28;19989;-81
2024/02/26 04:22:03;;;;;;;;;;;7.90;99.90;;;;;;5071808;28;20024;-82
2024/02/26 04:24:28;;;;;;;;;;;7.90;99.90;;;;;;5081390;28;19996;-83
2024/02/26 04:26:54;;;;;;;;;;;7.90;99.90;;;;;;5076045;28;20024;-84
2024/02/26 04:29:19;;;;;;;;;;;7.90;99.90;;;;;;5082212;28;20038;-86
2024/02/26 04:31:46;;;;;;;;;;;7.90;99.90;;;;;;5077852;28;19997;-84
2024/02/26 04:34:12;;;;;;;;;;;8.00;99.90;;;;;;5086361;28;20059;-84
2024/02/26 04:36:37;;;;;;;;;;;7.90;99.90;;;;;;5080775;28;20054;-83
2024/02/26 04:39:03;;;;;;;;;;;8.00;99.90;;;;;;5084553;28;20600;-85
2024/02/26 04:41:28;;;;;;;;;;;8.00;99.90;;;;;;5079326;28;20539;-84
2024/02/26 04:43:54;;;;;;;;;;;7.90;99.90;;;;;;5080497;28;19988;-85
2024/02/26 04:46:21;;;;;;;;;;;7.90;99.90;;;;;;5080106;28;19999;-85
2024/02/26 04:48:47;;;;;;;;;;;7.90;99.90;;;;;;5075014;28;20086;-83
2024/02/26 04:51:13;;;;;;;;;;;7.90;99.90;;;;;;5076031;28;20000;-83
2024/02/26 04:53:38;;;;;;;;;;;7.90;99.90;;;;;;5078868;28;20039;-84
2024/02/26 04:56:04;;;;;;;;;;;7.90;99.90;;;;;;5087102;28;20015;-87
2024/02/26 04:58:29;;;;;;;;;;;7.90;99.90;;;;;;5081620;28;20017;-84
2024/02/26 05:00:55;;;;;;;;;;;7.90;99.90;;;;;;5085627;28;19993;-81
2024/02/26 05:03:21;;;;;;;;;;;7.90;99.90;;;;;;5083933;28;19996;-82
2024/02/26 05:05:46;;;;;;;;;;;7.90;99.90;;;;;;5095167;28;20115;-84
2024/02/26 05:08:12;;;;;;;;;;;7.90;99.90;;;;;;5084532;28;20003;-84
2024/02/26 05:10:39;;;;;;;;;;;7.90;99.90;;;;;;5081989;28;20009;-84
2024/02/26 05:13:05;;;;;;;;;;;7.90;99.90;;;;;;5081936;28;19993;-84
2024/02/26 05:15:30;;;;;;;;;;;7.90;99.90;;;;;;5083523;28;19989;-83
2024/02/26 05:17:56;;;;;;;;;;;7.90;99.90;;;;;;5081089;28;20071;-84
2024/02/26 05:20:21;;;;;;;;;;;7.90;99.90;;;;;;5079456;28;20112;-85
2024/02/26 05:22:47;;;;;;;;;;;7.90;99.90;;;;;;5091665;28;20109;-85
2024/02/26 05:25:16;;;;;;;;;;;7.80;99.90;;;;;;5081335;28;19996;-84
2024/02/26 05:27:43;;;;;;;;;;;7.90;99.90;;;;;;5076339;28;19997;-83
2024/02/26 05:30:09;;;;;;;;;;;7.80;99.90;;;;;;5081573;28;20005;-84
2024/02/26 05:32:34;;;;;;;;;;;7.90;99.90;;;;;;5081897;28;20062;-84
2024/02/26 05:35:00;;;;;;;;;;;7.90;99.90;;;;;;5075422;28;19989;-84
2024/02/26 05:37:25;;;;;;;;;;;7.80;99.90;;;;;;5080997;28;19988;-85
2024/02/26 05:39:52;;;;;;;;;;;7.80;99.90;;;;;;5084071;28;20054;-86
2024/02/26 05:42:17;;;;;;;;;;;7.70;99.90;;;;;;5085480;28;20783;-85
2024/02/26 05:44:43;;;;;;;;;;;7.60;99.90;;;;;;5086233;28;20011;-86
2024/02/26 05:47:08;;;;;;;;;;;7.50;99.90;;;;;;5073937;28;19989;-82
2024/02/26 05:49:34;;;;;;;;;;;7.50;99.90;;;;;;5081261;28;20104;-81
2024/02/26 05:51:59;;;;;;;;;;;7.50;99.90;;;;;;5076552;28;20073;-81
2024/02/26 05:54:25;;;;;;;;;;;7.60;99.90;;;;;;5076970;28;20589;-83
2024/02/26 05:56:50;;;;;;;;;;;7.60;99.90;;;;;;5080581;28;20083;-83
2024/02/26 05:59:16;;;;;;;;;;;7.60;99.90;;;;;;5080137;28;20001;-84
2024/02/26 06:01:41;;;;;;;;;;;7.60;99.90;;;;;;5080134;28;20961;-84
2024/02/26 06:04:07;;;;;;;;;;;7.60;99.90;;;;;;5074123;28;20114;-84
2024/02/26 06:06:32;;;;;;;;;;;7.60;99.90;;;;;;5069322;28;19989;-82
2024/02/26 06:08:58;;;;;;;;;;;7.60;99.90;;;;;;5076749;28;20135;-83
2024/02/26 06:11:23;;;;;;;;;;;7.70;99.90;;;;;;5074855;28;20024;-84
2024/02/26 06:13:49;;;;;;;;;;;7.70;99.90;;;;;;5084695;28;20080;-84
2024/02/26 06:16:14;;;;;;;;;;;7.70;99.90;;;;;;5084037;28;20088;-85
2024/02/26 06:18:40;;;;;;;;;;;7.70;99.90;;;;;;5083311;28;19995;-84
2024/02/26 06:21:08;;;;;;;;;;;7.60;99.90;;;;;;5074938;28;20554;-83
2024/02/26 06:23:34;;;;;;;;;;;7.60;99.90;;;;;;5083223;28;19989;-84
2024/02/26 06:25:59;;;;;;;;;;;7.60;99.90;;;;;;5080696;28;20004;-85
2024/02/26 06:28:25;;;;;;;;;;;7.50;99.90;;;;;;5082727;28;19996;-85
2024/02/26 06:30:52;;;;;;;;;;;7.50;99.90;;;;;;5083726;28;20038;-86
2024/02/26 06:33:18;;;;;;;;;;;7.50;99.90;;;;;;5075842;28;20005;-86
2024/02/26 06:35:44;;;;;;;;;;;7.60;99.90;;;;;;5079893;28;20137;-85
2024/02/26 06:38:11;;;;;;;;;;;7.70;99.90;;;;;;5076747;28;20021;-85
2024/02/26 06:40:37;;;;;;;;;;;7.60;99.90;;;;;;5080961;28;19988;-84
2024/02/26 06:43:02;;;;;;;;;;;7.60;99.90;;;;;;5083012;28;19993;-84
2024/02/26 06:45:28;;;;;;;;;;;7.60;99.90;;;;;;5078357;28;20487;-84
2024/02/26 06:47:53;;;;;;;;;;;7.60;99.90;;;;;;5076320;28;20058;-84
2024/02/26 06:50:19;;;;;;;;;;;7.60;99.90;;;;;;5067942;28;20103;-84
2024/02/26 06:52:46;;;;;;;;;;;7.50;99.90;;;;;;5075455;28;19993;-84
2024/02/26 06:55:11;;;;;;;;;;;7.60;99.90;;;;;;5075948;28;20693;-84
2024/02/26 06:57:37;;;;;;;;;;;7.60;99.90;;;;;;5074325;28;20012;-84
2024/02/26 07:00:04;;;;;;;;;;;7.60;99.90;;;;;;5076865;28;19990;-85
2024/02/26 07:02:29;;;;;;;;;;;7.60;99.90;;;;;;5069302;28;19988;-83
2024/02/26 07:04:56;;;;;;;;;;;7.60;99.90;;;;;;5082199;28;20458;-85
2024/02/26 07:07:23;;;;;;;;;;;7.60;99.90;;;;;;5079551;28;20483;-84
2024/02/26 07:09:49;;;;;;;;;;;7.60;99.90;;;;;;5072886;28;20016;-83
2024/02/26 07:12:15;;;;;;;;;;;7.60;99.90;;;;;;5075074;28;19993;-83
2024/02/26 07:14:41;;;;;;;;;;;7.60;99.90;;;;;;5077821;28;19989;-84
2024/02/26 07:17:07;;;;;;;;;;;7.60;99.90;;;;;;5073777;28;20486;-83
2024/02/26 07:19:33;;;;;;;;;;;7.60;99.90;;;;;;5072199;28;20032;-83
2024/02/26 07:22:01;;;;;;;;;;;7.60;99.90;;;;;;5082253;28;20040;-82
2024/02/26 07:24:27;;;;;;;;;;;7.60;99.90;;;;;;5086031;28;20091;-82
2024/02/26 07:26:54;;;;;;;;;;;7.60;99.90;;;;;;5082173;28;20095;-83
2024/02/26 07:29:20;;;;;;;;;;;7.70;99.90;;;;;;5084505;28;20008;-82
2024/02/26 07:31:45;;;;;;;;;;;7.70;99.90;;;;;;5081357;28;19992;-83
2024/02/26 07:34:11;;;;;;;;;;;7.70;99.90;;;;;;5082941;28;19999;-82
2024/02/26 07:36:36;;;;;;;;;;;7.80;99.90;;;;;;5087065;28;19996;-81
2024/02/26 07:39:02;;;;;;;;;;;7.80;99.90;;;;;;5078221;28;20106;-82
2024/02/26 07:41:28;;;;;;;;;;;7.70;99.90;;;;;;5093393;28;20042;-82
2024/02/26 07:43:53;;;;;;;;;;;7.90;99.90;;;;;;5083183;28;19989;-83
2024/02/26 07:46:19;;;;;;;;;;;7.80;99.90;;;;;;5077257;28;19989;-82
2024/02/26 07:48:45;;;;;;;;;;;7.80;99.90;;;;;;5075392;28;20640;-83
2024/02/26 07:51:12;;;;;;;;;;;7.80;99.90;;;;;;5079400;28;20000;-82
2024/02/26 07:53:37;;;;;;;;;;;7.80;99.90;;;;;;5085575;28;19985;-82
2024/02/26 07:56:03;;;;;;;;;;;7.80;99.90;;;;;;5087759;28;19993;-82
2024/02/26 07:58:29;;;;;;;;;;;7.80;99.90;;;;;;5085347;28;20020;-83
2024/02/26 08:00:54;;;;;;;;;;;7.90;99.90;;;;;;5074991;28;19989;-82
2024/02/26 08:03:20;;;;;;;;;;;8.00;99.90;;;;;;5080871;28;20446;-83
2024/02/26 08:05:45;;;;;;;;;;;8.00;99.90;;;;;;5080804;28;20761;-84
2024/02/26 08:08:11;;;;;;;;;;;7.90;99.90;;;;;;5083650;28;20029;-82
2024/02/26 08:10:36;;;;;;;;;;;7.90;99.90;;;;;;5086051;28;20114;-81
2024/02/26 08:13:05;;;;;;;;;;;7.90;99.90;;;;;;5080011;28;19989;-83
2024/02/26 08:15:31;;;;;;;;;;;8.00;99.90;;;;;;5088280;28;19988;-82
2024/02/26 08:17:56;;;;;;;;;;;8.10;99.90;;;;;;5075873;28;19996;-84
2024/02/26 08:20:22;;;;;;;;;;;8.00;99.90;;;;;;5079639;28;19996;-87
2024/02/26 08:22:47;;;;;;;;;;;8.00;99.90;;;;;;5081378;28;20035;-85
2024/02/26 08:25:13;;;;;;;;;;;8.30;99.90;;;;;;5086992;28;20099;-85
2024/02/26 08:27:39;;;;;;;;;;;8.60;99.90;;;;;;5083089;28;19988;-91
2024/02/26 08:30:05;;;;;;;;;;;8.70;99.90;;;;;;5085749;28;20020;-85
2024/02/26 08:32:31;;;;;;;;;;;8.40;99.90;;;;;;5083086;28;19988;-85
2024/02/26 08:34:56;;;;;;;;;;;8.30;99.90;;;;;;5084345;28;19993;-84
2024/02/26 08:37:22;;;;;;;;;;;8.30;99.90;;;;;;5083575;28;19999;-83
2024/02/26 08:39:47;;;;;;;;;;;8.20;99.90;;;;;;5082333;28;20004;-92
2024/02/26 08:42:13;;;;;;;;;;;8.20;99.90;;;;;;5088442;28;19993;-88
2024/02/26 08:44:38;;;;;;;;;;;8.20;99.90;;;;;;5076019;28;20028;-86
2024/02/26 08:47:04;;;;;;;;;;;8.30;99.90;;;;;;5081092;28;20000;-87
2024/02/26 08:49:29;;;;;;;;;;;8.40;99.90;;;;;;5073799;28;20109;-82
2024/02/26 08:51:56;;;;;;;;;;;8.60;99.90;;;;;;5071551;28;20080;-86
2024/02/26 08:54:21;;;;;;;;;;;8.60;99.90;;;;;;5087085;28;19988;-84
2024/02/26 08:56:47;;;;;;;;;;;8.50;99.90;;;;;;5079423;28;20004;-82
2024/02/26 08:59:12;;;;;;;;;;;8.60;99.90;;;;;;5078393;28;19992;-90
2024/02/26 09:01:38;;;;;;;;;;;8.50;99.90;;;;;;5085151;28;19999;-87
2024/02/26 09:04:03;;;;;;;;;;;8.40;99.90;;;;;;5075428;28;19992;-87
2024/02/26 09:06:29;;;;;;;;;;;8.30;99.90;;;;;;5079712;28;20032;-85
2024/02/26 09:08:54;;;;;;;;;;;8.10;99.90;;;;;;5074064;28;20039;-88
2024/02/26 09:11:21;;;;;;;;;;;8.10;99.90;;;;;;5075481;28;19993;-87
2024/02/26 09:13:46;;;;;;;;;;;8.10;99.90;;;;;;5084532;28;20014;-85
2024/02/26 09:16:13;;;;;;;;;;;8.00;99.90;;;;;;5080123;28;19999;-84
2024/02/26 09:18:38;;;;;;;;;;;8.00;99.90;;;;;;5072303;28;19991;-83
2024/02/26 09:21:04;;;;;;;;;;;8.10;99.90;;;;;;5071194;28;20606;-83
2024/02/26 09:23:30;;;;;;;;;;;8.00;99.90;;;;;;5069385;28;19989;-81
2024/02/26 09:25:55;;;;;;;;;;;8.00;99.90;;;;;;5073741;28;20076;-81
2024/02/26 09:28:21;;;;;;;;;;;8.20;99.90;;;;;;5081729;28;20042;-80
2024/02/26 09:30:48;;;;;;;;;;;8.20;99.90;;;;;;5074288;28;20474;-81
2024/02/26 09:33:14;;;;;;;;;;;8.20;99.90;;;;;;5078411;28;19989;-81
2024/02/26 09:35:39;;;;;;;;;;;8.10;99.90;;;;;;5076188;28;19993;-81
2024/02/26 09:38:05;;;;;;;;;;;8.00;99.90;;;;;;5080573;28;20015;-80
2024/02/26 09:40:31;;;;;;;;;;;7.90;99.90;;;;;;5078515;28;20076;-83
2024/02/26 09:42:59;;;;;;;;;;;8.10;99.90;;;;;;5073837;28;19989;-81
2024/02/26 09:45:25;;;;;;;;;;;8.20;99.90;;;;;;5078598;28;19985;-81
2024/02/26 09:47:51;;;;;;;;;;;8.30;99.90;;;;;;5075096;28;20046;-82
2024/02/26 09:50:17;;;;;;;;;;;8.30;99.90;;;;;;5075526;28;20008;-82
2024/02/26 09:52:43;;;;;;;;;;;8.50;99.90;;;;;;5082409;28;20091;-84
2024/02/26 09:55:09;;;;;;;;;;;8.50;99.90;;;;;;5079180;28;20068;-83
2024/02/26 09:57:36;;;;;;;;;;;8.40;99.90;;;;;;5081474;28;20042;-82
2024/02/26 10:00:05;;;;;;;;;;;8.30;99.90;;;;;;5078037;28;20830;-82
2024/02/26 10:02:31;;;;;;;;;;;8.60;99.90;;;;;;5070411;28;20463;-82
2024/02/26 10:04:57;;;;;;;;;;;8.80;99.90;;;;;;5084915;28;20002;-81
2024/02/26 10:07:23;;;;;;;;;;;8.90;99.90;;;;;;5072834;28;20083;-82
2024/02/26 10:09:48;;;;;;;;;;;8.90;99.90;;;;;;5076684;28;20096;-80
2024/02/26 10:12:16;;;;;;;;;;;8.70;99.90;;;;;;5080737;28;20001;-80
2024/02/26 10:14:41;;;;;;;;;;;8.60;99.90;;;;;;5077944;28;19989;-81
2024/02/26 10:17:08;;;;;;;;;;;8.50;99.90;;;;;;5079823;28;20003;-80
2024/02/26 10:19:33;;;;;;;;;;;8.80;99.90;;;;;;5082127;28;20457;-82
2024/02/26 10:22:00;;;;;;;;;;;8.60;99.90;;;;;;5069636;28;20036;-83
2024/02/26 10:24:26;;;;;;;;;;;8.60;99.90;;;;;;5081151;28;19988;-81
2024/02/26 10:26:53;;;;;;;;;;;8.80;99.90;;;;;;5073937;28;20018;-82
2024/02/26 10:29:19;;;;;;;;;;;8.90;99.90;;;;;;5072929;28;20013;-83
2024/02/26 10:31:45;;;;;;;;;;;9.10;99.90;;;;;;5068536;28;20000;-80
2024/02/26 10:34:10;;;;;;;;;;;9.20;99.90;;;;;;5067338;28;20079;-81
2024/02/26 10:36:36;;;;;;;;;;;9.40;99.90;;;;;;5076605;28;19985;-83
2024/02/26 10:39:04;;;;;;;;;;;9.90;99.90;;;;;;5075932;28;20011;-82
2024/02/26 10:41:30;;;;;;;;;;;10.00;99.90;;;;;;5068618;28;19997;-82
2024/02/26 10:43:55;;;;;;;;;;;9.70;99.90;;;;;;5070222;28;20368;-82
2024/02/26 10:46:21;;;;;;;;;;;10.00;99.90;;;;;;5083134;28;20002;-80
2024/02/26 10:48:50;;;;;;;;;;;10.70;99.90;;;;;;5072741;28;20003;-82
2024/02/26 10:51:17;;;;;;;;;;;11.20;99.90;;;;;;5069131;28;20056;-80
2024/02/26 10:53:45;;;;;;;;;;;10.70;99.90;;;;;;5075623;28;20736;-79
2024/02/26 10:56:11;;;;;;;;;;;10.00;99.90;;;;;;5084793;28;19993;-78
2024/02/26 10:58:37;;;;;;;;;;;9.40;99.90;;;;;;5082898;28;20661;-78
2024/02/26 11:01:03;;;;;;;;;;;9.50;99.90;;;;;;5083361;28;19989;-84
2024/02/26 11:03:32;;;;;;;;;;;9.40;99.90;;;;;;5084707;28;20028;-80
2024/02/26 11:05:58;;;;;;;;;;;9.20;99.90;;;;;;5084272;28;19992;-83
2024/02/26 11:08:24;;;;;;;;;;;9.40;99.90;;;;;;5082098;28;20562;-83
2024/02/26 11:10:52;;;;;;;;;;;9.40;99.90;;;;;;5078569;28;20013;-82
2024/02/26 11:13:18;;;;;;;;;;;9.60;99.90;;;;;;5083646;28;19989;-88
2024/02/26 11:15:47;;;;;;;;;;;9.70;99.90;;;;;;5083678;28;20020;-88
2024/02/26 11:18:13;;;;;;;;;;;9.80;99.90;;;;;;5082397;28;20820;-86
2024/02/26 11:20:39;;;;;;;;;;;9.60;99.90;;;;;;5087423;28;20004;-87
2024/02/26 11:23:06;;;;;;;;;;;9.40;99.90;;;;;;5083996;28;19999;-87
2024/02/26 11:25:32;;;;;;;;;;;9.20;99.90;;;;;;5090163;28;20689;-90
2024/02/26 11:28:03;;;;;;;;;;;9.20;99.90;;;;;;5087354;28;19988;-88
2024/02/26 11:30:30;;;;;;;;;;;9.40;99.90;;;;;;5083950;28;20009;-92
2024/02/26 11:32:56;;;;;;;;;;;9.50;99.90;;;;;;5076696;28;19996;-90
2024/02/26 11:35:22;;;;;;;;;;;9.80;99.90;;;;;;5078636;28;20428;-92
2024/02/26 11:37:52;;;;;;;;;;;9.50;99.90;;;;;;5086802;28;20087;-87
2024/02/26 11:40:18;;;;;;;;;;;9.40;99.90;;;;;;5087131;28;19995;-87
2024/02/26 11:42:47;;;;;;;;;;;9.10;99.90;;;;;;5088162;28;20087;-91
2024/02/26 11:45:31;;;;;;;;;;;9.00;99.90;;;;;;5090780;28;19988;-90
2024/02/26 11:47:57;;;;;;;;;;;8.80;99.90;;;;;;5083611;28;20087;-92
2024/02/26 11:50:35;;;;;;;;;;;8.60;99.90;;;;;;5087085;28;20115;-93
2024/02/26 11:53:19;;;;;;;;;;;8.60;99.90;;;;;;5074159;28;19988;-85
2024/02/26 11:55:45;;;;;;;;;;;8.50;99.90;;;;;;5082470;28;19996;-87
2024/02/26 11:58:10;;;;;;;;;;;8.50;99.90;;;;;;5084847;28;20082;-90
2024/02/26 12:00:36;;;;;;;;;;;8.60;99.90;;;;;;5080052;28;19989;-90
2024/02/26 12:03:05;;;;;;;;;;;8.60;99.90;;;;;;5080497;28;19993;-86
2024/02/26 12:05:31;;;;;;;;;;;8.50;99.90;;;;;;5073321;28;19997;-87
2024/02/26 12:08:06;;;;;;;;;;;8.40;99.90;;;;;;5070220;28;19984;-89
2024/02/26 12:10:42;;;;;;;;;;;8.30;99.90;;;;;;5077620;28;20008;-85
2024/02/26 12:13:14;;;;;;;;;;;8.40;99.90;;;;;;5079993;28;19992;-84
2024/02/26 12:15:44;;;;;;;;;;;8.40;99.90;;;;;;5083182;28;20701;-83
2024/02/26 12:18:15;;;;;;;;;;;8.40;99.90;;;;;;5092820;28;19992;-84
2024/02/26 12:20:40;;;;;;;;;;;8.40;99.90;;;;;;5075031;28;20026;-84
2024/02/26 12:23:06;;;;;;;;;;;8.40;99.90;;;;;;5079783;28;20070;-83
2024/02/26 12:25:32;;;;;;;;;;;8.40;99.90;;;;;;5081801;28;20733;-85
2024/02/26 12:27:58;;;;;;;;;;;8.30;99.90;;;;;;5077531;28;19993;-84
2024/02/26 12:30:29;;;;;;;;;;;8.50;99.90;;;;;;5081017;28;20069;-84
2024/02/26 12:32:57;;;;;;;;;;;8.40;99.90;;;;;;5074366;28;20667;-82
2024/02/26 12:35:23;;;;;;;;;;;8.50;99.90;;;;;;5086774;28;20065;-83
2024/02/26 12:37:51;;;;;;;;;;;8.60;99.90;;;;;;5079541;28;20091;-83
2024/02/26 12:40:17;;;;;;;;;;;8.50;99.90;;;;;;5078989;28;19993;-86
2024/02/26 12:42:42;;;;;;;;;;;8.20;99.90;;;;;;5075483;28;20464;-87
2024/02/26 12:45:09;;;;;;;;;;;8.00;99.90;;;;;;5075649;28;20483;-85
2024/02/26 12:47:35;;;;;;;;;;;7.90;99.90;;;;;;5087259;28;20029;-83
2024/02/26 12:50:01;;;;;;;;;;;8.00;99.90;;;;;;5086932;28;20042;-81
2024/02/26 12:52:26;;;;;;;;;;;8.00;99.90;;;;;;5085213;28;19985;-84
2024/02/26 12:54:52;;;;;;;;;;;8.10;99.90;;;;;;5082523;28;20312;-84
2024/02/26 12:57:17;;;;;;;;;;;8.20;99.90;;;;;;5086194;28;20021;-83
2024/02/26 12:59:43;;;;;;;;;;;8.10;99.90;;;;;;5077811;28;19996;-83
2024/02/26 13:02:09;;;;;;;;;;;8.10;99.90;;;;;;5074602;28;19993;-83
2024/02/26 13:04:34;;;;;;;;;;;8.10;99.90;;;;;;5078533;28;19988;-84
2024/02/26 13:07:03;;;;;;;;;;;8.10;99.90;;;;;;5075527;28;21289;-83
2024/02/26 13:09:32;;;;;;;;;;;8.30;99.90;;;;;;5082355;28;20020;-83
2024/02/26 13:11:57;;;;;;;;;;;8.50;99.90;;;;;;5074224;28;20782;-83
2024/02/26 13:14:23;;;;;;;;;;;8.70;99.90;;;;;;5079313;28;19997;-83
2024/02/26 13:16:57;;;;;;;;;;;8.70;99.90;;;;;;5084769;28;20118;-84
2024/02/26 13:19:24;;;;;;;;;;;8.90;99.90;;;;;;5078920;28;19999;-85
2024/02/26 13:21:49;;;;;;;;;;;9.10;99.90;;;;;;5081718;28;19992;-87
2024/02/26 13:24:15;;;;;;;;;;;9.20;99.90;;;;;;5076882;28;20460;-86
2024/02/26 13:26:41;;;;;;;;;;;9.10;99.90;;;;;;5077691;28;20364;-86
2024/02/26 13:29:06;;;;;;;;;;;9.00;99.90;;;;;;5079649;28;20005;-86
2024/02/26 13:31:38;;;;;;;;;;;8.90;99.90;;;;;;5079945;28;19995;-86
2024/02/26 13:34:03;;;;;;;;;;;8.90;99.90;;;;;;5078486;28;19993;-86
2024/02/26 13:36:29;;;;;;;;;;;9.10;99.90;;;;;;5086224;28;20129;-85
2024/02/26 13:38:55;;;;;;;;;;;9.20;99.90;;;;;;5080853;28;20003;-85
2024/02/26 13:41:21;;;;;;;;;;;9.20;99.90;;;;;;5082724;28;20001;-85
2024/02/26 13:43:47;;;;;;;;;;;9.20;99.90;;;;;;5079673;28;19997;-85
2024/02/26 13:46:14;;;;;;;;;;;9.10;99.90;;;;;;5078839;28;20484;-87
2024/02/26 13:48:41;;;;;;;;;;;9.20;99.90;;;;;;5074833;28;20024;-88
2024/02/26 13:51:06;;;;;;;;;;;9.40;99.90;;;;;;5079743;28;19989;-86
2024/02/26 13:53:32;;;;;;;;;;;9.50;99.90;;;;;;5076157;28;20525;-86
2024/02/26 13:55:58;;;;;;;;;;;9.40;99.90;;;;;;5092457;28;20039;-88
2024/02/26 13:58:25;;;;;;;;;;;9.40;99.90;;;;;;5075844;28;20046;-87
2024/02/26 14:00:50;;;;;;;;;;;9.30;99.90;;;;;;5080066;28;20054;-83
2024/02/26 14:03:16;;;;;;;;;;;9.20;99.90;;;;;;5082998;28;19989;-81
2024/02/26 14:05:41;;;;;;;;;;;9.30;99.90;;;;;;5076123;28;20742;-81
2024/02/26 14:08:07;;;;;;;;;;;9.20;99.90;;;;;;5083681;28;20022;-81
2024/02/26 14:10:33;;;;;;;;;;;9.20;99.90;;;;;;5072605;28;20020;-80
2024/02/26 14:12:59;;;;;;;;;;;9.10;99.90;;;;;;5071673;28;20028;-83
2024/02/26 14:15:24;;;;;;;;;;;9.10;99.90;;;;;;5076616;28;19989;-84
2024/02/26 14:17:55;;;;;;;;;;;9.10;99.90;;;;;;5074939;28;19989;-82
2024/02/26 14:20:24;;;;;;;;;;;9.20;99.90;;;;;;5071431;28;20008;-82
2024/02/26 14:22:52;;;;;;;;;;;9.20;99.90;;;;;;5069703;28;20716;-84